Time;durP1;ratioP1;P1;durP2;ratioP2;P2;SDS_P1;SDS_P2;PMS_P1;PMS_P2;Temp;Humidity;BMP_temperature;BMP_pressure;BME280_temperature;BME280_humidity;BME280_pressure;Samples;Min_cycle;Max_cycle;Signal;HPM_P1;HPM_P2
2021/09/06 00:00:47;;;;;;;5.40;3.50;;;;;;;9.60;77.11;98114.43;116310;1181;69168;-69
2021/09/06 00:03:17;;;;;;;10.30;7.10;;;;;;;9.54;77.97;98115.45;116324;1180;69151;-74
2021/09/06 00:05:48;;;;;;;9.40;6.40;;;;;;;9.47;79.14;98113.63;116266;1180;59551;-71
2021/09/06 00:08:17;;;;;;;7.60;4.90;;;;;;;9.41;77.63;98117.05;116304;1178;59566;-70
2021/09/06 00:10:59;;;;;;;7.90;4.60;;;;;;;9.37;76.97;98112.77;116293;1181;71316;-71
2021/09/06 00:13:28;;;;;;;5.60;3.70;;;;;;;9.34;78.04;98110.70;116270;1181;68957;-69
2021/09/06 00:15:59;;;;;;;8.50;5.30;;;;;;;9.35;76.91;98113.04;116192;1181;69241;-70
2021/09/06 00:18:28;;;;;;;;;;;;;;;9.36;77.60;98111.79;116157;1181;59532;-69
2021/09/06 00:21:01;;;;;;;6.60;4.40;;;;;;;9.33;77.58;98110.23;116240;1179;59536;-69
2021/09/06 00:23:31;;;;;;;8.60;5.20;;;;;;;9.32;77.74;98109.95;116274;1182;71271;-69
2021/09/06 00:26:02;;;;;;;6.80;4.70;;;;;;;9.30;78.11;98110.05;116333;1182;68447;-71
2021/09/06 00:28:32;;;;;;;7.60;5.50;;;;;;;9.23;79.00;98109.73;116374;1179;69178;-67
2021/09/06 00:31:02;;;;;;;7.10;5.00;;;;;;;9.16;78.24;98108.17;116309;1181;59566;-69
2021/09/06 00:33:32;;;;;;;8.60;5.40;;;;;;;9.11;78.18;98106.76;116295;1178;59569;-71
2021/09/06 00:36:01;;;;;;;9.20;5.80;;;;;;;9.05;78.17;98108.81;116270;1181;70515;-71
2021/09/06 00:38:31;;;;;;;7.40;4.80;;;;;;;9.01;78.22;98114.58;116215;1181;69006;-71
2021/09/06 00:41:01;;;;;;;7.60;4.50;;;;;;;9.00;77.95;98113.13;116250;1181;68347;-70
2021/09/06 00:43:31;;;;;;;;;;;;;;;9.02;77.75;98112.98;116271;1178;59537;-70
2021/09/06 00:46:02;;;;;;;9.70;6.00;;;;;;;9.01;78.39;98107.66;116324;1181;59533;-69
2021/09/06 00:48:33;;;;;;;5.90;4.30;;;;;;;8.95;80.12;98109.91;116265;1181;71382;-68
2021/09/06 00:51:02;;;;;;;6.30;4.00;;;;;;;8.90;78.79;98109.33;116290;1183;68401;-72
2021/09/06 00:53:32;;;;;;;6.30;3.80;;;;;;;8.85;77.84;98112.02;116234;1182;69329;-70
2021/09/06 00:56:04;;;;;;;7.60;5.00;;;;;;;8.79;77.34;98105.89;116304;1181;59534;-71
2021/09/06 00:58:37;;;;;;;6.00;4.30;;;;;;;8.73;78.34;98104.67;116310;1182;59504;-70
2021/09/06 01:01:08;;;;;;;8.50;5.30;;;;;;;8.67;78.23;98114.21;116314;1178;70581;-71
2021/09/06 01:03:38;;;;;;;;;;;;;;;8.62;78.46;98115.20;116278;1178;69281;-71
2021/09/06 01:06:20;;;;;;;8.50;6.20;;;;;;;8.56;80.74;98115.50;116259;1178;68648;-69
2021/09/06 01:09:02;;;;;;;9.30;5.80;;;;;;;8.53;81.17;98112.35;116259;1179;59507;-72
2021/09/06 01:11:42;;;;;;;6.50;4.20;;;;;;;8.51;79.95;98111.45;116320;1179;59532;-70
2021/09/06 01:14:20;;;;;;;6.00;3.90;;;;;;;8.50;78.72;98107.67;116259;1179;71303;-69
2021/09/06 01:16:49;;;;;;;6.70;3.90;;;;;;;8.48;78.12;98105.19;116288;1178;69187;-70
2021/09/06 01:19:19;;;;;;;7.50;4.90;;;;;;;8.46;78.25;98101.45;116214;1178;68458;-70
2021/09/06 01:21:53;;;;;;;6.20;4.00;;;;;;;8.45;80.13;98104.63;116254;1181;59554;-68
2021/09/06 01:24:43;;;;;;;9.00;5.50;;;;;;;8.48;79.22;98104.98;116245;1181;59558;-69
2021/09/06 01:27:18;;;;;;;9.50;5.60;;;;;;;8.48;80.46;98109.18;116196;1179;71338;-69
2021/09/06 01:29:48;;;;;;;11.30;6.20;;;;;;;8.43;80.46;98110.64;116272;1178;69348;-70
2021/09/06 01:32:19;;;;;;;7.20;4.00;;;;;;;8.39;81.79;98119.55;116225;1178;69438;-69
2021/09/06 01:34:50;;;;;;;5.00;3.50;;;;;;;8.36;80.46;98121.58;116257;1181;59551;-72
2021/09/06 01:37:20;;;;;;;;;;;;;;;8.34;80.62;98120.80;116275;1178;59942;-70
2021/09/06 01:39:55;;;;;;;9.40;6.30;;;;;;;8.33;79.13;98123.83;116400;1177;70492;-71
2021/09/06 01:42:26;;;;;;;5.30;3.50;;;;;;;8.28;81.60;98125.80;116256;1182;68404;-69
2021/09/06 01:45:01;;;;;;;7.50;4.80;;;;;;;8.24;80.95;98129.47;116210;1183;68552;-70
2021/09/06 01:47:32;;;;;;;7.00;4.60;;;;;;;8.20;80.69;98128.50;116268;1182;59547;-69
2021/09/06 01:50:03;;;;;;;7.10;5.10;;;;;;;8.17;80.07;98127.23;116416;1179;59573;-69
2021/09/06 01:52:39;;;;;;;7.00;5.00;;;;;;;8.16;80.45;98126.23;116336;1181;71354;-69
2021/09/06 01:55:09;;;;;;;8.00;5.40;;;;;;;8.16;80.91;98129.02;116296;1182;69112;-72
2021/09/06 01:57:39;;;;;;;7.80;5.30;;;;;;;8.17;80.72;98129.31;116203;1181;68300;-70
2021/09/06 02:00:12;;;;;;;9.00;6.00;;;;;;;8.20;82.03;98134.57;116231;1179;59538;-70
2021/09/06 02:02:43;;;;;;;7.10;4.80;;;;;;;8.23;81.05;98135.09;116281;1179;59549;-69
2021/09/06 02:05:17;;;;;;;6.60;4.20;;;;;;;8.28;81.58;98133.77;116321;1178;72064;-68
2021/09/06 02:07:51;;;;;;;7.50;5.00;;;;;;;8.37;80.59;98134.56;116306;1182;68186;-70
2021/09/06 02:10:22;;;;;;;10.30;6.20;;;;;;;8.40;82.69;98138.58;116238;1178;68433;-69
2021/09/06 02:12:55;;;;;;;7.40;4.90;;;;;;;8.41;81.74;98140.95;116295;1182;59527;-69
2021/09/06 02:15:24;;;;;;;9.90;7.30;;;;;;;8.45;81.25;98138.31;116301;1182;59485;-68
2021/09/06 02:17:56;;;;;;;8.70;6.40;;;;;;;8.48;81.53;98142.20;116217;1181;71309;-66
2021/09/06 02:20:28;;;;;;;8.00;4.90;;;;;;;8.51;81.35;98138.86;116278;1181;68568;-68
2021/09/06 02:22:58;;;;;;;8.10;4.80;;;;;;;8.47;80.42;98140.45;115975;1184;68536;-67
2021/09/06 02:25:29;;;;;;;8.70;4.40;;;;;;;8.47;80.84;98143.42;116070;1181;59514;-69
2021/09/06 02:28:00;;;;;;;7.20;4.90;;;;;;;8.46;80.20;98141.25;116168;1182;59550;-69
2021/09/06 02:30:31;;;;;;;7.30;4.80;;;;;;;8.46;80.15;98142.27;116311;1181;71370;-70
2021/09/06 02:33:02;;;;;;;7.60;4.90;;;;;;;8.44;80.40;98145.70;116287;1178;67461;-71
2021/09/06 02:35:54;;;;;;;7.20;5.30;;;;;;;8.41;80.85;98146.19;116107;1181;68656;-68
2021/09/06 02:38:24;;;;;;;5.10;3.40;;;;;;;8.37;81.19;98145.85;116276;1182;59531;-70
2021/09/06 02:40:54;;;;;;;7.80;4.90;;;;;;;8.35;80.29;98146.77;116301;1178;59556;-69
2021/09/06 02:43:24;;;;;;;7.10;4.30;;;;;;;8.32;80.81;98148.17;116221;1181;69541;-69
2021/09/06 02:45:54;;;;;;;7.90;5.00;;;;;;;8.29;80.40;98141.91;116123;1179;69150;-68
2021/09/06 02:48:29;;;;;;;7.90;4.80;;;;;;;8.26;80.76;98139.62;116290;1181;68395;-69
2021/09/06 02:50:59;;;;;;;6.40;4.40;;;;;;;8.23;80.45;98137.18;116191;1181;59943;-70
2021/09/06 02:53:28;;;;;;;8.30;5.10;;;;;;;8.19;80.23;98136.17;116293;1179;59546;-68
2021/09/06 02:55:59;;;;;;;7.50;4.40;;;;;;;8.14;80.69;98137.98;116240;1179;70599;-69
2021/09/06 02:58:29;;;;;;;6.30;5.00;;;;;;;8.10;80.17;98140.98;116289;1181;69204;-69
2021/09/06 03:01:00;;;;;;;6.90;4.20;;;;;;;8.06;81.15;98142.57;116106;1182;69222;-70
2021/09/06 03:03:30;;;;;;;7.50;4.00;;;;;;;8.05;79.77;98142.13;116154;1177;59536;-69
2021/09/06 03:06:01;;;;;;;6.50;4.30;;;;;;;8.03;79.90;98140.83;116244;1181;59559;-70
2021/09/06 03:08:31;;;;;;;5.40;3.30;;;;;;;8.01;79.75;98143.67;116347;1179;71349;-69
2021/09/06 03:11:01;;;;;;;6.20;4.20;;;;;;;7.99;79.62;98145.53;116324;1182;68577;-69
2021/09/06 03:13:32;;;;;;;5.80;5.00;;;;;;;7.97;79.61;98142.85;116047;1184;68619;-68
2021/09/06 03:16:03;;;;;;;9.50;5.90;;;;;;;7.94;81.52;98142.15;116121;1180;59533;-69
2021/09/06 03:18:34;;;;;;;9.60;6.30;;;;;;;7.89;81.47;98146.17;116199;1182;59526;-68
2021/09/06 03:21:42;;;;;;;6.20;4.10;;;;;;;7.82;82.07;98142.05;116297;1178;70519;-69
2021/09/06 03:24:12;;;;;;;7.50;5.10;;;;;;;7.77;81.44;98139.86;116250;1181;68513;-68
2021/09/06 03:26:42;;;;;;;7.70;6.00;;;;;;;7.73;80.90;98137.29;116206;1181;68439;-69
2021/09/06 03:29:12;;;;;;;6.40;5.10;;;;;;;7.70;81.53;98138.30;116218;1181;59559;-68
2021/09/06 03:31:42;;;;;;;7.40;5.10;;;;;;;7.69;81.90;98140.83;116192;1182;59528;-67
2021/09/06 03:34:12;;;;;;;5.10;3.50;;;;;;;7.66;81.04;98137.27;116235;1181;71337;-68
2021/09/06 03:36:41;;;;;;;;;;;;;;;7.66;79.88;98138.82;116339;1181;69146;-69
2021/09/06 03:39:16;;;;;;;9.40;5.90;;;;;;;7.67;79.38;98138.80;116412;1180;69090;-69
2021/09/06 03:41:47;;;;;;;11.30;6.60;;;;;;;7.67;80.99;98141.22;116209;1182;59543;-69
2021/09/06 03:44:19;;;;;;;8.60;6.00;;;;;;;7.67;83.18;98147.99;116184;1181;59547;-69
2021/09/06 03:46:49;;;;;;;6.20;4.30;;;;;;;7.67;82.22;98145.92;116082;1182;70567;-67
2021/09/06 03:49:19;;;;;;;9.80;5.70;;;;;;;7.69;81.58;98147.76;116176;1182;69185;-68
2021/09/06 03:51:49;;;;;;;6.80;4.60;;;;;;;7.71;81.48;98148.84;116148;1179;69118;-69
2021/09/06 03:54:20;;;;;;;5.40;4.10;;;;;;;7.74;80.98;98144.35;116200;1181;59555;-69
2021/09/06 03:56:50;;;;;;;;;;;;;;;7.78;81.53;98146.23;116138;1181;59534;-68
2021/09/06 03:59:20;;;;;;;6.00;4.10;;;;;;;7.82;81.83;98148.14;116235;1181;71165;-69
2021/09/06 04:01:51;;;;;;;6.60;3.80;;;;;;;7.85;81.89;98143.08;116197;1181;69156;-67
2021/09/06 04:04:24;;;;;;;7.30;4.70;;;;;;;7.90;81.73;98150.13;116081;1181;69156;-68
2021/09/06 04:06:53;;;;;;;5.90;4.20;;;;;;;7.95;80.48;98154.23;116136;1182;60003;-68
2021/09/06 04:09:29;;;;;;;5.70;3.30;;;;;;;7.99;79.60;98154.19;116214;1181;59586;-68
2021/09/06 04:11:59;;;;;;;6.10;3.90;;;;;;;8.03;79.31;98157.98;116132;1183;70646;-69
2021/09/06 04:14:32;;;;;;;6.20;3.90;;;;;;;8.07;79.51;98159.54;116358;1181;69156;-69
2021/09/06 04:17:02;;;;;;;6.70;3.50;;;;;;;8.10;79.45;98158.30;116319;1182;69184;-69
2021/09/06 04:19:37;;;;;;;6.00;4.40;;;;;;;8.20;79.54;98157.80;116344;1178;59930;-66
2021/09/06 04:22:07;;;;;;;5.30;4.00;;;;;;;8.31;79.15;98159.88;116314;1181;59479;-70
2021/09/06 04:24:37;;;;;;;;;;;;;;;8.38;79.28;98158.98;116316;1181;71326;-69
2021/09/06 04:27:06;;;;;;;8.20;5.90;;;;;;;8.43;80.31;98158.21;116309;1179;69131;-67
2021/09/06 04:29:36;;;;;;;9.90;7.10;;;;;;;8.47;79.48;98160.12;116301;1181;69312;-69
2021/09/06 04:32:06;;;;;;;8.40;6.00;;;;;;;8.48;80.18;98168.06;116193;1182;59516;-71
2021/09/06 04:34:36;;;;;;;;;;;;;;;8.51;79.14;98171.88;116354;1181;59557;-69
2021/09/06 04:37:07;;;;;;;7.20;4.90;;;;;;;8.61;78.97;98171.88;116150;1178;70552;-69
2021/09/06 04:39:40;;;;;;;5.90;4.80;;;;;;;8.75;78.66;98170.63;116192;1182;68422;-69
2021/09/06 04:42:10;;;;;;;5.90;4.00;;;;;;;8.88;78.41;98171.27;116076;1184;69212;-68
2021/09/06 04:44:40;;;;;;;7.90;5.20;;;;;;;9.08;78.22;98175.79;116076;1181;59551;-69
2021/09/06 04:47:10;;;;;;;7.90;6.00;;;;;;;9.32;77.85;98175.50;116098;1182;59620;-68
2021/09/06 04:49:40;;;;;;;7.50;5.50;;;;;;;9.54;77.59;98178.65;116248;1181;71402;-68
2021/09/06 04:52:28;;;;;;;10.30;6.00;;;;;;;9.85;76.41;98183.83;116246;1177;69139;-69
2021/09/06 04:54:58;;;;;;;11.50;6.50;;;;;;;10.12;76.52;98187.63;116297;1178;69286;-69
2021/09/06 04:57:28;;;;;;;6.20;4.00;;;;;;;10.39;75.88;98189.52;116127;1178;59524;-68
2021/09/06 04:59:59;;;;;;;10.00;4.80;;;;;;;10.61;75.31;98190.00;116145;1180;59591;-67
2021/09/06 05:02:29;;;;;;;8.10;4.70;;;;;;;10.71;75.07;98192.89;116119;1178;70549;-69
2021/09/06 05:05:03;;;;;;;10.70;7.00;;;;;;;10.77;74.09;98198.44;116250;1182;68395;-69
2021/09/06 05:07:33;;;;;;;8.00;5.80;;;;;;;10.74;73.87;98197.58;116265;1183;69384;-69
2021/09/06 05:10:03;;;;;;;7.10;4.30;;;;;;;10.75;74.34;98198.18;116047;1183;59599;-68
2021/09/06 05:12:33;;;;;;;5.00;3.30;;;;;;;10.82;74.21;98199.35;116182;1178;59557;-65
2021/09/06 05:15:03;;;;;;;9.90;5.00;;;;;;;10.93;74.27;98196.24;116165;1182;71394;-67
2021/09/06 05:17:33;;;;;;;10.90;7.30;;;;;;;11.05;73.79;98193.05;116203;1182;69033;-67
2021/09/06 05:20:04;;;;;;;;;;;;;;;11.11;73.60;98193.55;116115;1181;68263;-66
2021/09/06 05:22:34;;;;;;;13.30;8.10;;;;;;;11.14;73.38;98198.42;116068;1182;59551;-69
2021/09/06 05:25:03;;;;;;;;;;;;;;;11.16;73.22;98198.79;116228;1181;59981;-68
2021/09/06 05:27:34;;;;;;;12.10;7.80;;;;;;;11.27;73.27;98197.42;116048;1181;70749;-70
2021/09/06 05:30:05;;;;;;;9.20;5.10;;;;;;;11.41;72.64;98199.98;116311;1182;68584;-67
2021/09/06 05:32:37;;;;;;;9.40;6.30;;;;;;;11.76;72.82;98194.62;116161;1181;69234;-69
2021/09/06 05:35:09;;;;;;;7.40;4.60;;;;;;;12.21;72.00;98198.48;116427;1180;60519;-70
2021/09/06 05:37:39;;;;;;;9.20;5.90;;;;;;;12.68;70.75;98197.73;116340;1179;59530;-67
2021/09/06 05:40:09;;;;;;;8.00;5.30;;;;;;;13.17;68.69;98199.73;116231;1181;71219;-66
2021/09/06 05:42:39;;;;;;;8.90;5.70;;;;;;;13.67;67.76;98202.10;116117;1182;69210;-68
2021/09/06 05:45:09;;;;;;;6.30;4.60;;;;;;;14.26;67.93;98208.63;116186;1182;69330;-67
2021/09/06 05:47:41;;;;;;;10.20;6.30;;;;;;;14.88;65.61;98209.68;116280;1182;59571;-69
2021/09/06 05:50:17;;;;;;;8.90;5.50;;;;;;;15.41;63.09;98208.88;116261;1181;59577;-70
2021/09/06 05:53:07;;;;;;;9.60;6.10;;;;;;;16.06;61.96;98206.27;116297;1180;70566;-69
2021/09/06 05:55:36;;;;;;;9.60;6.50;;;;;;;16.61;60.18;98205.48;116139;1181;69093;-65
2021/09/06 05:58:05;;;;;;;11.70;7.60;;;;;;;17.25;59.83;98204.73;116161;1182;69826;-70
2021/09/06 06:00:35;;;;;;;7.20;5.70;;;;;;;17.82;56.69;98205.20;116168;1181;59598;-69
2021/09/06 06:03:05;;;;;;;8.70;6.10;;;;;;;18.34;58.98;98212.30;116217;1181;59486;-70
2021/09/06 06:05:35;;;;;;;6.80;5.20;;;;;;;18.86;53.49;98214.73;116199;1182;71381;-67
2021/09/06 06:08:05;;;;;;;6.90;4.90;;;;;;;19.15;56.25;98212.64;116258;1178;69333;-67
2021/09/06 06:10:35;;;;;;;7.80;5.50;;;;;;;18.94;48.75;98212.58;116260;1181;68446;-69
2021/09/06 06:13:06;;;;;;;11.80;6.90;;;;;;;18.60;51.67;98211.84;116313;1177;59563;-68
2021/09/06 06:15:37;;;;;;;7.00;5.10;;;;;;;18.28;52.61;98210.86;116280;1179;59550;-66
2021/09/06 06:18:28;;;;;;;7.60;4.20;;;;;;;18.40;49.52;98211.59;116410;1178;71407;-69
2021/09/06 06:20:58;;;;;;;5.10;3.70;;;;;;;18.95;51.97;98212.09;116292;1179;68475;-66
2021/09/06 06:23:50;;;;;;;5.50;3.20;;;;;;;19.24;48.83;98211.80;116066;1182;69225;-69
2021/09/06 06:26:36;;;;;;;6.30;3.60;;;;;;;19.63;48.23;98209.64;116151;1182;59531;-70
2021/09/06 06:29:09;;;;;;;4.10;3.10;;;;;;;20.31;47.46;98211.29;116033;1183;59527;-71
2021/09/06 06:31:40;;;;;;;4.70;3.30;;;;;;;21.05;45.17;98211.20;116082;1184;71657;-69
2021/09/06 06:34:10;;;;;;;6.70;4.40;;;;;;;21.65;41.80;98211.55;116087;1179;68273;-68
2021/09/06 06:36:40;;;;;;;5.30;3.40;;;;;;;22.14;41.00;98208.77;115998;1183;68436;-67
2021/09/06 06:39:22;;;;;;;4.50;2.80;;;;;;;22.62;39.37;98216.30;116125;1183;59563;-70
2021/09/06 06:41:56;;;;;;;4.60;3.20;;;;;;;22.51;37.24;98213.14;116238;1181;59543;-67
2021/09/06 06:44:27;;;;;;;4.90;3.10;;;;;;;21.77;38.00;98214.32;116237;1181;71522;-70
2021/09/06 06:47:01;;;;;;;5.30;3.10;;;;;;;21.69;38.85;98217.08;116305;1180;68660;-67
2021/09/06 06:49:30;;;;;;;5.80;3.60;;;;;;;21.96;37.32;98213.32;116139;1178;69419;-68
2021/09/06 06:51:59;;;;;;;4.40;3.10;;;;;;;22.03;37.32;98212.97;116262;1177;59547;-69
2021/09/06 06:54:28;;;;;;;5.00;3.60;;;;;;;21.80;38.11;98213.23;116257;1178;59585;-68
2021/09/06 06:56:58;;;;;;;7.10;3.80;;;;;;;21.72;38.05;98212.70;116270;1181;71186;-69
2021/09/06 06:59:27;;;;;;;4.60;2.90;;;;;;;21.89;37.08;98209.31;116235;1181;69086;-69
2021/09/06 07:01:56;;;;;;;4.70;3.00;;;;;;;22.23;36.12;98214.94;116252;1182;68113;-69
2021/09/06 07:04:27;;;;;;;5.00;3.20;;;;;;;22.62;35.07;98217.56;116268;1182;59536;-67
2021/09/06 07:06:56;;;;;;;;;;;;;;;22.71;32.97;98222.27;116214;1182;59476;-68
2021/09/06 07:09:25;;;;;;;5.20;3.20;;;;;;;22.77;32.29;98221.31;116197;1178;70595;-70
2021/09/06 07:11:54;;;;;;;;;;;;;;;22.36;33.31;98223.63;116181;1184;68519;-69
2021/09/06 07:14:24;;;;;;;4.80;2.70;;;;;;;22.15;33.97;98224.48;116255;1178;69047;-70
2021/09/06 07:16:53;;;;;;;4.50;2.60;;;;;;;22.16;34.13;98220.67;116150;1182;59547;-66
2021/09/06 07:19:23;;;;;;;4.10;3.20;;;;;;;21.82;34.16;98221.90;116332;1181;59569;-69
2021/09/06 07:21:52;;;;;;;3.60;2.50;;;;;;;21.75;35.09;98226.59;116293;1180;70417;-69
2021/09/06 07:24:25;;;;;;;3.80;2.70;;;;;;;22.15;34.85;98222.15;116247;1182;69328;-66
2021/09/06 07:26:55;;;;;;;;;;;;;;;22.42;34.59;98223.52;116279;1181;68778;-66
2021/09/06 07:29:24;;;;;;;3.50;2.70;;;;;;;21.81;35.00;98224.33;116333;1180;59548;-69
2021/09/06 07:31:53;;;;;;;3.60;2.90;;;;;;;21.78;34.32;98225.02;116288;1181;59532;-68
2021/09/06 07:34:22;;;;;;;3.80;2.40;;;;;;;21.87;34.00;98220.54;116226;1178;70682;-67
2021/09/06 07:36:52;;;;;;;5.60;3.20;;;;;;;21.55;34.67;98218.24;116345;1181;68758;-66
2021/09/06 07:39:23;;;;;;;3.80;2.90;;;;;;;21.83;33.81;98216.05;116284;1178;68458;-67
2021/09/06 07:41:53;;;;;;;4.60;2.70;;;;;;;21.38;34.32;98218.05;116273;1182;59615;-69
2021/09/06 07:44:22;;;;;;;5.80;3.00;;;;;;;21.01;35.59;98224.20;116164;1182;59570;-67
2021/09/06 07:46:52;;;;;;;5.60;3.20;;;;;;;20.79;36.13;98222.70;116281;1182;71142;-70
2021/09/06 07:49:22;;;;;;;5.20;3.50;;;;;;;20.68;35.89;98220.52;116244;1181;69194;-66
2021/09/06 07:51:53;;;;;;;4.30;3.50;;;;;;;20.27;36.50;98223.16;116201;1180;68287;-67
2021/09/06 07:54:25;;;;;;;4.70;3.10;;;;;;;20.49;36.57;98218.66;116240;1180;59535;-70
2021/09/06 07:56:55;;;;;;;6.00;3.00;;;;;;;20.68;36.35;98218.48;116292;1182;59458;-66
2021/09/06 07:59:29;;;;;;;5.50;2.90;;;;;;;20.93;35.80;98221.45;116258;1182;71236;-70
2021/09/06 08:01:58;;;;;;;6.00;3.20;;;;;;;21.32;34.59;98226.65;116165;1178;68282;-67
2021/09/06 08:04:27;;;;;;;4.50;2.90;;;;;;;21.42;34.57;98220.30;116181;1178;71024;-66
2021/09/06 08:06:58;;;;;;;5.90;3.70;;;;;;;21.19;34.58;98228.58;116245;1182;59547;-66
2021/09/06 08:09:27;;;;;;;4.60;3.10;;;;;;;21.35;34.73;98229.92;116206;1182;59536;-67
2021/09/06 08:11:56;;;;;;;4.50;3.30;;;;;;;21.51;34.61;98225.41;116248;1177;70531;-68
2021/09/06 08:14:27;;;;;;;6.50;3.90;;;;;;;21.46;35.41;98226.23;116234;1181;69170;-69
2021/09/06 08:16:56;;;;;;;4.30;2.90;;;;;;;21.32;35.81;98224.75;116102;1179;69163;-70
2021/09/06 08:19:27;;;;;;;4.50;2.90;;;;;;;21.84;35.22;98226.91;116271;1182;59519;-69
2021/09/06 08:21:57;;;;;;;5.10;2.70;;;;;;;22.10;34.59;98223.27;116229;1180;59521;-67
2021/09/06 08:24:27;;;;;;;4.30;2.80;;;;;;;22.69;32.98;98227.64;116157;1182;70553;-66
2021/09/06 08:26:56;;;;;;;6.00;3.00;;;;;;;22.65;32.85;98232.85;116297;1181;67755;-67
2021/09/06 08:29:25;;;;;;;5.90;3.00;;;;;;;23.05;31.30;98230.69;116248;1181;68426;-68
2021/09/06 08:31:54;;;;;;;4.40;3.10;;;;;;;22.75;31.92;98229.31;116180;1182;59536;-67
2021/09/06 08:34:24;;;;;;;;;;;;;;;22.55;32.95;98233.00;116293;1177;59609;-67
2021/09/06 08:36:53;;;;;;;4.50;2.90;;;;;;;22.85;31.97;98233.17;116228;1178;71261;-65
2021/09/06 08:39:22;;;;;;;4.20;2.50;;;;;;;23.06;32.14;98227.80;116199;1183;67747;-68
2021/09/06 08:41:52;;;;;;;4.40;2.90;;;;;;;23.52;31.78;98227.98;116249;1181;69236;-68
2021/09/06 08:44:25;;;;;;;5.30;3.40;;;;;;;23.65;30.85;98229.77;116210;1180;59585;-68
2021/09/06 08:46:54;;;;;;;4.10;2.90;;;;;;;23.44;31.34;98228.86;116199;1181;59609;-69
2021/09/06 08:49:24;;;;;;;5.00;2.90;;;;;;;23.77;31.01;98224.48;116239;1182;69462;-69
2021/09/06 08:51:53;;;;;;;;;;;;;;;24.01;31.46;98220.43;116280;1182;69012;-66
2021/09/06 08:54:22;;;;;;;3.40;2.50;;;;;;;24.42;31.01;98218.50;116217;1178;69024;-66
2021/09/06 08:56:52;;;;;;;5.70;3.80;;;;;;;24.84;30.70;98221.29;116217;1178;59585;-68
2021/09/06 08:59:22;;;;;;;4.10;2.70;;;;;;;25.32;29.21;98223.25;116289;1178;59574;-68
2021/09/06 09:01:53;;;;;;;5.60;3.30;;;;;;;25.33;29.05;98219.11;116282;1181;70323;-68
2021/09/06 09:05:03;;;;;;;;;;;;;;;25.32;29.37;98221.08;116022;1178;69159;-67
2021/09/06 09:07:46;;;;;;;3.70;2.90;;;;;;;25.68;29.23;98211.83;116364;1178;68300;-69
2021/09/06 09:10:48;;;;;;;4.90;3.20;;;;;;;25.88;28.46;98211.83;116259;1182;59554;-68
2021/09/06 09:13:40;;;;;;;4.30;2.60;;;;;;;25.85;28.75;98212.61;116267;1181;59565;-71
2021/09/06 09:16:32;;;;;;;4.50;3.10;;;;;;;26.30;28.52;98209.69;116210;1181;71168;-69
2021/09/06 09:19:23;;;;;;;4.30;3.20;;;;;;;26.54;28.25;98216.94;116415;1177;69043;-67
2021/09/06 09:22:30;;;;;;;5.60;3.60;;;;;;;25.64;28.53;98213.02;116232;1182;69062;-70
2021/09/06 09:25:20;;;;;;;5.70;3.90;;;;;;;24.87;30.01;98211.60;116403;1180;59520;-70
2021/09/06 09:28:09;;;;;;;4.60;2.90;;;;;;;25.23;30.08;98207.06;116271;1181;59571;-67
2021/09/06 09:31:10;;;;;;;;;;;;;;;25.45;30.19;98208.53;116304;1181;71341;-69
2021/09/06 09:33:58;;;;;;;4.20;2.80;;;;;;;25.49;29.62;98209.48;116163;1183;69177;-67
2021/09/06 09:36:59;;;;;;;5.00;3.40;;;;;;;25.67;29.02;98208.05;116187;1181;68343;-67
2021/09/06 09:39:34;;;;;;;4.80;3.40;;;;;;;25.76;29.11;98206.44;116260;1181;59583;-66
2021/09/06 09:42:09;;;;;;;5.30;3.50;;;;;;;25.63;29.48;98200.52;116239;1178;59511;-69
2021/09/06 09:44:46;;;;;;;5.30;3.50;;;;;;;25.03;30.04;98200.45;116255;1179;71345;-68
2021/09/06 09:47:53;;;;;;;4.50;3.20;;;;;;;25.67;29.77;98196.48;116198;1178;68713;-70
2021/09/06 09:50:24;;;;;;;6.00;3.30;;;;;;;26.01;29.79;98194.84;116307;1181;69029;-68
2021/09/06 09:52:55;;;;;;;5.30;3.40;;;;;;;26.38;29.19;98202.19;116308;1183;59603;-67
2021/09/06 09:55:31;;;;;;;3.80;2.70;;;;;;;26.20;28.33;98203.42;116315;1182;59530;-70
2021/09/06 09:58:01;;;;;;;4.10;3.20;;;;;;;26.34;28.40;98202.05;116297;1182;71287;-70
2021/09/06 10:00:30;;;;;;;5.40;3.60;;;;;;;26.67;28.24;98200.55;116299;1182;69179;-65
2021/09/06 10:03:03;;;;;;;6.50;3.60;;;;;;;26.98;27.99;98201.25;116297;1182;69409;-67
2021/09/06 10:05:38;;;;;;;5.20;3.80;;;;;;;25.32;30.29;98198.91;116207;1178;59572;-68
2021/09/06 10:08:15;;;;;;;4.50;2.80;;;;;;;25.68;29.53;98192.21;116294;1182;59523;-66
2021/09/06 10:10:45;;;;;;;4.90;2.80;;;;;;;26.49;29.40;98194.27;116326;1181;71377;-68
2021/09/06 10:13:19;;;;;;;4.60;3.30;;;;;;;27.19;28.12;98191.34;116284;1177;69156;-66
2021/09/06 10:15:58;;;;;;;6.00;3.80;;;;;;;27.46;27.36;98187.39;116302;1179;69173;-71
2021/09/06 10:18:40;;;;;;;4.90;3.30;;;;;;;27.11;27.74;98191.51;116466;1177;59619;-68
2021/09/06 10:21:17;;;;;;;5.90;3.90;;;;;;;27.28;26.89;98190.75;116334;1181;59543;-68
2021/09/06 10:23:51;;;;;;;6.20;4.10;;;;;;;26.77;27.77;98186.73;116203;1182;71330;-69
2021/09/06 10:26:21;;;;;;;5.30;3.90;;;;;;;27.14;27.51;98187.11;116310;1182;68207;-71
2021/09/06 10:28:51;;;;;;;4.70;3.20;;;;;;;27.23;27.98;98184.95;116268;1178;68429;-69
2021/09/06 10:31:22;;;;;;;4.80;3.80;;;;;;;28.06;26.90;98183.27;116257;1182;59619;-68
2021/09/06 10:34:02;;;;;;;5.00;3.60;;;;;;;27.66;27.11;98181.86;116289;1182;59473;-69
2021/09/06 10:36:33;;;;;;;5.90;3.50;;;;;;;28.63;25.80;98178.63;116404;1180;70376;-69
2021/09/06 10:39:09;;;;;;;6.30;4.70;;;;;;;29.25;25.00;98180.14;116207;1180;69086;-68
2021/09/06 10:41:47;;;;;;;7.30;4.60;;;;;;;28.57;25.41;98180.29;116264;1181;68404;-66
2021/09/06 10:44:19;;;;;;;5.70;4.10;;;;;;;29.33;25.26;98179.36;116294;1178;59532;-70
2021/09/06 10:47:04;;;;;;;6.70;4.70;;;;;;;29.22;25.35;98180.14;116355;1180;59543;-69
2021/09/06 10:49:39;;;;;;;6.50;4.90;;;;;;;28.74;25.76;98177.09;116372;1180;71152;-69
2021/09/06 10:52:11;;;;;;;5.20;3.60;;;;;;;28.37;26.18;98178.30;116331;1181;69118;-68
2021/09/06 10:54:42;;;;;;;6.50;4.80;;;;;;;28.18;26.29;98176.76;116284;1182;69388;-70
2021/09/06 10:57:13;;;;;;;5.70;4.10;;;;;;;28.90;25.43;98176.17;116287;1181;59561;-68
2021/09/06 10:59:45;;;;;;;7.20;4.60;;;;;;;29.30;25.16;98174.30;116294;1182;59614;-67
2021/09/06 11:02:16;;;;;;;5.50;4.10;;;;;;;29.14;25.64;98174.27;116503;1180;69749;-70
2021/09/06 11:04:47;;;;;;;5.90;4.60;;;;;;;29.69;25.01;98175.30;116359;1182;68343;-70
2021/09/06 11:07:17;;;;;;;7.40;5.20;;;;;;;29.66;24.76;98176.16;116312;1181;68414;-69
2021/09/06 11:09:47;;;;;;;7.70;4.60;;;;;;;30.12;24.00;98172.66;116274;1181;59517;-67
2021/09/06 11:12:16;;;;;;;6.60;4.00;;;;;;;30.69;23.63;98175.92;116301;1178;59482;-71
2021/09/06 11:14:48;;;;;;;5.40;4.00;;;;;;;30.71;23.51;98173.73;116309;1182;70608;-67
2021/09/06 11:17:25;;;;;;;6.30;4.10;;;;;;;30.87;23.14;98175.23;116310;1182;69325;-67
2021/09/06 11:19:57;;;;;;;5.80;3.90;;;;;;;31.18;22.81;98173.79;116379;1180;69329;-70
2021/09/06 11:22:29;;;;;;;6.70;4.50;;;;;;;31.89;22.98;98171.35;116320;1180;59508;-66
2021/09/06 11:25:02;;;;;;;5.10;3.90;;;;;;;32.49;21.97;98167.20;116326;1182;59530;-68
2021/09/06 11:27:34;;;;;;;5.40;4.20;;;;;;;32.33;21.62;98165.42;116383;1182;71777;-67
2021/09/06 11:30:07;;;;;;;6.50;4.90;;;;;;;31.75;22.07;98168.64;116362;1182;68307;-68
2021/09/06 11:32:47;;;;;;;6.30;4.70;;;;;;;31.18;22.65;98167.42;116528;1180;69311;-68
2021/09/06 11:35:21;;;;;;;7.70;4.30;;;;;;;31.22;22.56;98170.02;116365;1179;59501;-69
2021/09/06 11:37:52;;;;;;;5.70;4.20;;;;;;;31.74;22.34;98165.13;116312;1181;59531;-67
2021/09/06 11:40:21;;;;;;;5.60;3.80;;;;;;;31.98;22.05;98163.47;116281;1178;70787;-69
2021/09/06 11:42:51;;;;;;;5.00;4.50;;;;;;;32.56;21.79;98158.98;116286;1182;68494;-67
2021/09/06 11:45:21;;;;;;;5.80;4.40;;;;;;;32.89;21.35;98159.08;116305;1178;69018;-69
2021/09/06 11:48:05;;;;;;;6.00;4.30;;;;;;;32.52;21.56;98161.40;116345;1180;59537;-72
2021/09/06 11:50:37;;;;;;;9.60;3.90;;;;;;;32.79;21.48;98160.20;116288;1182;59517;-68
2021/09/06 11:53:13;;;;;;;4.30;3.30;;;;;;;33.37;21.34;98164.73;116447;1179;70865;-69
2021/09/06 11:55:55;;;;;;;4.60;3.90;;;;;;;34.17;20.42;98161.70;116252;1182;68618;-73
2021/09/06 11:58:46;;;;;;;4.60;3.60;;;;;;;32.60;21.27;98159.15;116233;1178;69717;-73